Time;durP1;ratioP1;P1;durP2;ratioP2;P2;SDS_P1;SDS_P2;PMS_P1;PMS_P2;Temp;Humidity;BMP_temperature;BMP_pressure;BME280_temperature;BME280_humidity;BME280_pressure;Samples;Min_cycle;Max_cycle;Signal;HPM_P1;HPM_P2
2022/07/21 00:02:24;;;;;;;;;;;;;;;21.38;50.92;101103.70;1707731;84;25767;-60
2022/07/21 00:04:51;;;;;;;;;;;;;;;21.32;50.87;101105.88;1707860;84;25770;-60
2022/07/21 00:07:17;;;;;;;;;;;;;;;21.28;51.27;101107.84;1707875;83;25805;-60
2022/07/21 00:09:44;;;;;;;;;;;;;;;21.21;51.28;101105.05;1706384;84;25819;-60
2022/07/21 00:12:10;;;;;;;;;;;;;;;21.16;51.11;101104.27;1706441;84;28350;-60
2022/07/21 00:14:37;;;;;;;;;;;;;;;21.14;51.15;101113.19;1705946;84;25792;-60
2022/07/21 00:17:03;;;;;;;;;;;;;;;21.15;51.08;101114.05;1706320;83;25788;-60
2022/07/21 00:19:30;;;;;;;;;;;;;;;21.14;51.38;101110.45;1706299;83;25814;-60
2022/07/21 00:21:57;;;;;;;;;;;;;;;21.16;51.11;101112.48;1706184;84;25951;-60
2022/07/21 00:24:24;;;;;;;;;;;;;;;21.19;51.25;101113.46;1707121;84;27595;-60
2022/07/21 00:26:51;;;;;;;;;;;;;;;21.21;50.84;101116.82;1707630;83;26135;-60
2022/07/21 00:29:17;;;;;;;;;;;;;;;21.23;51.00;101116.64;1707898;84;25774;-60
2022/07/21 00:31:44;;;;;;;;;;;;;;;21.23;50.97;101118.01;1707930;84;25898;-60
2022/07/21 00:34:10;;;;;;;;;;;;;;;21.20;51.70;101120.59;1708188;84;25694;-60
2022/07/21 00:36:37;;;;;;;;;;;;;;;21.18;52.01;101122.71;1707910;84;27478;-60
2022/07/21 00:39:03;;;;;;;;;;;;;;;21.15;51.56;101116.25;1706694;83;25738;-60
2022/07/21 00:41:30;;;;;;;;;;;;;;;21.15;51.37;101118.98;1703689;83;25614;-59
2022/07/21 00:43:57;;;;;;;;;;;;;;;21.11;52.13;101116.34;1706362;84;25971;-60
2022/07/21 00:46:23;;;;;;;;;;;;;;;21.06;52.05;101121.55;1707158;84;25726;-59
2022/07/21 00:48:49;;;;;;;;;;;;;;;21.07;52.61;101125.97;1708038;83;27493;-60
2022/07/21 00:51:16;;;;;;;;;;;;;;;21.02;51.89;101125.73;1707779;83;25822;-60
2022/07/21 00:53:43;;;;;;;;;;;;;;;21.00;51.97;101122.34;1707941;83;25778;-60
2022/07/21 00:56:10;;;;;;;;;;;;;;;21.01;51.82;101125.41;1707092;84;25816;-60
2022/07/21 00:58:37;;;;;;;;;;;;;;;21.04;51.91;101127.72;1706541;83;25750;-60
2022/07/21 01:01:04;;;;;;;;;;;;;;;21.06;51.44;101126.51;1707256;83;27532;-60
2022/07/21 01:03:31;;;;;;;;;;;;;;;21.10;51.29;101130.52;1708161;83;25710;-60
2022/07/21 01:05:59;;;;;;;;;;;;;;;21.14;50.79;101128.77;1732579;82;25696;-60
2022/07/21 01:08:27;;;;;;;;;;;;;;;21.19;50.54;101130.38;1719448;82;25853;-60
2022/07/21 01:10:55;;;;;;;;;;;;;;;21.20;50.46;101130.70;1679442;84;25733;-60
2022/07/21 01:13:21;;;;;;;;;;;;;;;21.19;50.63;101129.02;1679529;84;27556;-60
2022/07/21 01:15:47;;;;;;;;;;;;;;;21.18;50.47;101131.42;1710951;82;25771;-60
2022/07/21 01:18:14;;;;;;;;;;;;;;;21.20;50.27;101129.34;1701356;83;25789;-60
2022/07/21 01:20:43;;;;;;;;;;;;;;;21.23;50.31;101128.95;1701080;83;25897;-60
2022/07/21 01:23:11;;;;;;;;;;;;;;;21.26;50.48;101132.64;1701107;83;25786;-60
2022/07/21 01:25:37;;;;;;;;;;;;;;;21.27;50.45;101137.07;1702122;82;27426;-60
2022/07/21 01:28:04;;;;;;;;;;;;;;;21.25;50.65;101134.55;1700840;84;25763;-60
2022/07/21 01:30:31;;;;;;;;;;;;;;;21.25;50.46;101134.55;1700862;84;25607;-60
2022/07/21 01:32:58;;;;;;;;;;;;;;;21.28;50.28;101136.56;1701013;83;25796;-60
2022/07/21 01:35:24;;;;;;;;;;;;;;;21.30;50.57;101135.83;1714247;82;25713;-60
2022/07/21 01:37:51;;;;;;;;;;;;;;;21.28;50.88;101141.50;1737175;82;27488;-60
2022/07/21 01:43:04;;;;;;;;;;;;;;;21.22;50.50;101138.20;1707826;84;25777;-59
2022/07/21 01:45:31;;;;;;;;;;;;;;;21.21;50.51;101145.55;1704607;82;25786;-59
2022/07/21 01:47:57;;;;;;;;;;;;;;;21.19;50.45;101149.03;1700626;83;25674;-59
2022/07/21 01:50:26;;;;;;;;;;;;;;;21.18;50.27;101145.96;1707663;83;28424;-59
2022/07/21 01:52:55;;;;;;;;;;;;;;;21.16;50.26;101148.58;1707718;84;25852;-60
2022/07/21 01:55:23;;;;;;;;;;;;;;;21.16;50.21;101146.67;1705312;82;25722;-60
2022/07/21 01:57:50;;;;;;;;;;;;;;;21.18;50.13;101152.80;1701325;83;25791;-60
2022/07/21 02:00:18;;;;;;;;;;;;;;;21.21;49.98;101156.48;1703297;82;25579;-60
2022/07/21 02:02:44;;;;;;;;;;;;;;;21.22;49.89;101160.09;1697842;84;27484;-60
2022/07/21 02:05:11;;;;;;;;;;;;;;;21.22;49.76;101154.08;1697574;83;25938;-59
2022/07/21 02:07:38;;;;;;;;;;;;;;;21.23;50.51;101159.88;1697809;84;25804;-60
2022/07/21 02:10:06;;;;;;;;;;;;;;;21.18;50.50;101160.14;1702755;82;25864;-60
2022/07/21 02:12:33;;;;;;;;;;;;;;;21.16;50.69;101153.52;1737450;82;25729;-60
2022/07/21 02:14:59;;;;;;;;;;;;;;;21.15;50.76;101161.39;1728567;82;27661;-60
2022/07/21 02:17:26;;;;;;;;;;;;;;;21.11;51.53;101158.74;1700820;84;26020;-58
2022/07/21 02:19:52;;;;;;;;;;;;;;;21.06;50.88;101158.47;1702902;82;25635;-60
2022/07/21 02:22:18;;;;;;;;;;;;;;;21.06;50.75;101163.94;1693490;83;25722;-60
2022/07/21 02:24:45;;;;;;;;;;;;;;;21.06;50.50;101166.67;1692705;84;25865;-60
2022/07/21 02:27:12;;;;;;;;;;;;;;;21.08;50.64;101164.59;1706377;84;27409;-60
2022/07/21 02:29:38;;;;;;;;;;;;;;;21.09;50.42;101169.03;1703512;82;25779;-59
2022/07/21 02:32:06;;;;;;;;;;;;;;;21.11;50.26;101171.05;1701065;83;25627;-59
2022/07/21 02:34:32;;;;;;;;;;;;;;;21.09;50.02;101164.39;1701039;83;26553;-60
2022/07/21 02:36:59;;;;;;;;;;;;;;;21.10;49.82;101165.25;1700824;84;25691;-59
2022/07/21 02:39:26;;;;;;;;;;;;;;;21.12;49.69;101172.72;1696894;83;27490;-59
2022/07/21 02:41:53;;;;;;;;;;;;;;;21.12;49.67;101171.34;1697255;84;25701;-60
2022/07/21 02:44:20;;;;;;;;;;;;;;;21.11;49.86;101169.15;1698566;84;25744;-60
2022/07/21 02:46:46;;;;;;;;;;;;;;;21.11;49.70;101175.16;1699367;84;25847;-59
2022/07/21 02:49:13;;;;;;;;;;;;;;;21.11;49.50;101169.15;1708564;83;25714;-61
2022/07/21 02:51:40;;;;;;;;;;;;;;;21.12;49.33;101176.82;1728998;83;27480;-60
2022/07/21 02:54:06;;;;;;;;;;;;;;;21.11;49.55;101180.62;1728872;83;25910;-61
2022/07/21 02:56:33;;;;;;;;;;;;;;;21.07;49.97;101182.87;1729329;83;25673;-59
2022/07/21 02:58:59;;;;;;;;;;;;;;;21.01;50.33;101181.47;1715296;83;25721;-58
2022/07/21 03:01:26;;;;;;;;;;;;;;;20.93;50.21;101183.27;1693195;84;25934;-59
2022/07/21 03:03:53;;;;;;;;;;;;;;;20.90;50.65;101191.02;1692006;84;27562;-59
2022/07/21 03:06:20;;;;;;;;;;;;;;;20.87;50.08;101187.33;1692165;84;25844;-59
2022/07/21 03:08:47;;;;;;;;;;;;;;;20.89;50.18;101191.55;1700340;83;25780;-59
2022/07/21 03:11:13;;;;;;;;;;;;;;;20.89;50.10;101185.22;1728975;83;27940;-59
2022/07/21 03:13:40;;;;;;;;;;;;;;;20.88;50.04;101183.55;1718290;83;26575;-60
2022/07/21 03:16:06;;;;;;;;;;;;;;;20.90;50.31;101191.02;1699859;84;27483;-59
2022/07/21 03:18:35;;;;;;;;;;;;;;;20.87;50.21;101191.42;1703380;83;25821;-59
2022/07/21 03:21:01;;;;;;;;;;;;;;;20.85;50.46;101189.40;1713120;82;25772;-60
2022/07/21 03:23:28;;;;;;;;;;;;;;;20.83;50.50;101195.08;1695287;83;25801;-60
2022/07/21 03:25:54;;;;;;;;;;;;;;;20.80;50.34;101189.98;1673369;83;25759;-60
2022/07/21 03:28:21;;;;;;;;;;;;;;;20.82;50.49;101200.21;1673372;83;27534;-60
2022/07/21 03:30:47;;;;;;;;;;;;;;;20.81;50.31;101197.15;1724722;82;25759;-60
2022/07/21 03:33:14;;;;;;;;;;;;;;;20.79;50.28;101204.69;1672457;84;25504;-60
2022/07/21 03:35:41;;;;;;;;;;;;;;;20.77;50.13;101199.42;1671811;85;25874;-60
2022/07/21 03:38:08;;;;;;;;;;;;;;;20.74;50.22;101197.60;1671780;85;26079;-60
2022/07/21 03:40:36;;;;;;;;;;;;;;;20.71;50.37;101202.87;1693387;84;27539;-59
2022/07/21 03:43:05;;;;;;;;;;;;;;;20.63;50.08;101201.12;1728900;83;25744;-59
2022/07/21 03:45:34;;;;;;;;;;;;;;;20.63;50.32;101209.33;1722782;83;25557;-59
2022/07/21 03:48:02;;;;;;;;;;;;;;;20.59;50.06;101214.84;1687246;85;25800;-59
2022/07/21 03:50:30;;;;;;;;;;;;;;;20.59;50.37;101218.10;1687228;83;25762;-59
2022/07/21 03:52:56;;;;;;;;;;;;;;;20.58;50.45;101208.20;1698563;84;27483;-59
2022/07/21 03:55:23;;;;;;;;;;;;;;;20.56;50.19;101219.84;1697941;84;25432;-59
2022/07/21 03:57:54;;;;;;;;;;;;;;;20.54;50.31;101213.21;1698710;84;25464;-61
2022/07/21 04:00:34;;;;;;;;;;;;;;;20.52;50.20;101215.81;1680218;83;25804;-59
2022/07/21 04:03:01;;;;;;;;;;;;;;;20.49;50.43;101221.98;1700251;84;26145;-60
2022/07/21 04:05:28;;;;;;;;;;;;;;;20.46;50.27;101221.52;1699645;83;27481;-60
2022/07/21 04:07:56;;;;;;;;;;;;;;;20.40;50.24;101216.30;1699593;84;25770;-59
2022/07/21 04:10:26;;;;;;;;;;;;;;;20.41;50.07;101221.23;1696989;83;25525;-61
2022/07/21 04:12:54;;;;;;;;;;;;;;;20.40;50.32;101216.30;1695515;84;25838;-60
2022/07/21 04:15:21;;;;;;;;;;;;;;;20.41;50.26;101218.49;1695368;84;25853;-60
2022/07/21 04:17:48;;;;;;;;;;;;;;;20.40;50.42;101223.63;1695374;84;27494;-61
2022/07/21 04:20:16;;;;;;;;;;;;;;;20.38;50.38;101219.73;1699804;83;25837;-60
2022/07/21 04:22:44;;;;;;;;;;;;;;;20.39;50.15;101232.36;1699720;84;25830;-59
2022/07/21 04:25:11;;;;;;;;;;;;;;;20.40;50.18;101219.53;1671738;84;26447;-59
2022/07/21 04:27:38;;;;;;;;;;;;;;;20.44;50.24;101224.95;1671933;85;26014;-60
2022/07/21 04:30:06;;;;;;;;;;;;;;;20.45;50.23;101224.75;1718766;83;27503;-60
2022/07/21 04:32:33;;;;;;;;;;;;;;;20.47;50.10;101224.59;1729196;83;25800;-60
2022/07/21 04:34:59;;;;;;;;;;;;;;;20.48;50.15;101220.28;1729011;83;25756;-60
2022/07/21 04:37:26;;;;;;;;;;;;;;;20.51;50.12;101220.42;1727253;83;25874;-59
2022/07/21 04:39:53;;;;;;;;;;;;;;;20.50;50.04;101226.91;1718063;82;25741;-60
2022/07/21 04:42:19;;;;;;;;;;;;;;;20.51;50.08;101227.78;1720876;83;27730;-60
2022/07/21 04:44:46;;;;;;;;;;;;;;;20.54;50.24;101226.87;1721004;82;27342;-60
2022/07/21 04:47:12;;;;;;;;;;;;;;;20.55;50.00;101230.44;1718688;82;25758;-59
2022/07/21 04:49:39;;;;;;;;;;;;;;;20.57;49.87;101229.23;1719458;83;25792;-59
2022/07/21 04:52:06;;;;;;;;;;;;;;;20.58;49.82;101228.17;1721272;83;27344;-59
2022/07/21 04:54:33;;;;;;;;;;;;;;;20.60;49.87;101234.83;1717786;83;27455;-59
2022/07/21 04:57:02;;;;;;;;;;;;;;;20.61;49.89;101233.80;1716405;83;25746;-60
2022/07/21 04:59:29;;;;;;;;;;;;;;;20.63;49.67;101231.70;1709906;82;26546;-59
2022/07/21 05:01:57;;;;;;;;;;;;;;;20.66;49.49;101238.16;1703400;83;25931;-60
2022/07/21 05:04:24;;;;;;;;;;;;;;;20.68;49.36;101237.45;1735518;82;25917;-59
2022/07/21 05:06:50;;;;;;;;;;;;;;;20.73;49.66;101239.61;1693199;84;27713;-61
2022/07/21 05:09:17;;;;;;;;;;;;;;;20.76;49.62;101246.08;1694604;83;25705;-60
2022/07/21 05:11:43;;;;;;;;;;;;;;;20.75;49.15;101234.30;1693662;84;25918;-61
2022/07/21 05:14:10;;;;;;;;;;;;;;;20.75;49.06;101240.30;1689351;84;25960;-61
2022/07/21 05:16:36;;;;;;;;;;;;;;;20.77;48.70;101243.67;1691955;84;25857;-61
2022/07/21 05:19:03;;;;;;;;;;;;;;;20.78;48.64;101248.10;1694872;83;28377;-60
2022/07/21 05:21:29;;;;;;;;;;;;;;;20.79;48.54;101242.97;1709080;83;25844;-60
2022/07/21 05:23:56;;;;;;;;;;;;;;;20.80;48.56;101247.40;1707971;83;25772;-60
2022/07/21 05:26:23;;;;;;;;;;;;;;;20.82;48.46;101245.33;1708902;83;25817;-61
2022/07/21 05:28:50;;;;;;;;;;;;;;;20.84;48.26;101248.72;1709091;82;25774;-60
2022/07/21 05:31:17;;;;;;;;;;;;;;;20.87;48.07;101251.05;1707832;82;27644;-60
2022/07/21 05:33:43;;;;;;;;;;;;;;;20.86;47.85;101254.82;1707943;82;25925;-60
2022/07/21 05:36:10;;;;;;;;;;;;;;;20.89;47.98;101254.45;1708981;83;25756;-60
2022/07/21 05:38:36;;;;;;;;;;;;;;;20.90;47.91;101263.48;1685756;85;25788;-62
2022/07/21 05:41:03;;;;;;;;;;;;;;;20.92;47.62;101265.01;1679399;84;25735;-60
2022/07/21 05:43:31;;;;;;;;;;;;;;;20.94;47.55;101263.44;1679263;84;27658;-60
2022/07/21 05:45:58;;;;;;;;;;;;;;;21.00;47.42;101264.56;1703217;83;25848;-60
2022/07/21 05:48:25;;;;;;;;;;;;;;;21.00;47.03;101268.66;1710777;82;26668;-60
2022/07/21 05:50:54;;;;;;;;;;;;;;;20.99;46.90;101265.06;1683256;83;25768;-60
2022/07/21 05:53:22;;;;;;;;;;;;;;;21.01;47.07;101268.98;1666266;86;25972;-60
2022/07/21 05:55:48;;;;;;;;;;;;;;;21.03;47.11;101265.02;1666154;86;27479;-60
2022/07/21 05:58:15;;;;;;;;;;;;;;;21.08;46.71;101263.06;1680207;84;25709;-60
2022/07/21 06:00:42;;;;;;;;;;;;;;;21.12;46.46;101262.98;1689624;83;25810;-60
2022/07/21 06:03:09;;;;;;;;;;;;;;;21.15;46.18;101263.98;1687551;83;25853;-60
2022/07/21 06:05:35;;;;;;;;;;;;;;;21.12;46.04;101257.52;1687526;84;25679;-60
2022/07/21 06:08:02;;;;;;;;;;;;;;;21.14;45.96;101267.75;1680043;84;27486;-60
2022/07/21 06:10:29;;;;;;;;;;;;;;;21.15;45.64;101265.34;1676918;85;25449;-60
2022/07/21 06:12:56;;;;;;;;;;;;;;;21.19;45.66;101272.64;1690331;83;26297;-60
2022/07/21 06:15:22;;;;;;;;;;;;;;;21.26;45.52;101263.47;1710301;83;26657;-60
2022/07/21 06:17:49;;;;;;;;;;;;;;;21.33;45.55;101264.91;1687699;84;27375;-60
2022/07/21 06:20:15;;;;;;;;;;;;;;;21.39;45.06;101262.75;1689066;84;27478;-61
2022/07/21 06:22:42;;;;;;;;;;;;;;;21.46;44.93;101264.69;1706259;83;25701;-63
2022/07/21 06:25:09;;;;;;;;;;;;;;;21.50;44.92;101264.63;1723250;83;25808;-60
2022/07/21 06:27:36;;;;;;;;;;;;;;;21.63;44.00;101258.45;1704088;83;26581;-60
2022/07/21 06:30:04;;;;;;;;;;;;;;;21.73;44.21;101258.43;1695356;83;25797;-60
2022/07/21 06:32:30;;;;;;;;;;;;;;;21.77;44.16;101265.72;1716338;83;28244;-60
2022/07/21 06:34:57;;;;;;;;;;;;;;;21.82;44.08;101258.28;1705609;83;25743;-60
2022/07/21 06:37:23;;;;;;;;;;;;;;;21.88;43.69;101260.21;1693460;84;25749;-60
2022/07/21 06:39:50;;;;;;;;;;;;;;;21.97;43.60;101262.30;1696882;84;25820;-59
2022/07/21 06:42:17;;;;;;;;;;;;;;;22.04;43.13;101262.67;1699644;84;25821;-59
2022/07/21 06:44:44;;;;;;;;;;;;;;;22.10;42.74;101258.80;1699696;84;27503;-59
2022/07/21 06:47:11;;;;;;;;;;;;;;;22.18;42.20;101243.56;1693127;84;25734;-60
2022/07/21 06:49:37;;;;;;;;;;;;;;;22.24;42.29;101239.17;1699431;84;25687;-60
2022/07/21 06:52:05;;;;;;;;;;;;;;;22.27;41.83;101234.13;1693976;84;25863;-60
2022/07/21 06:54:33;;;;;;;;;;;;;;;22.34;40.40;101232.80;1689485;83;25622;-60
2022/07/21 06:57:01;;;;;;;;;;;;;;;22.43;40.15;101228.00;1672556;83;27545;-60
2022/07/21 06:59:28;;;;;;;;;;;;;;;22.55;39.25;101231.03;1720714;83;25991;-60
2022/07/21 07:01:55;;;;;;;;;;;;;;;22.62;39.24;101231.90;1678097;83;25798;-60
2022/07/21 07:04:22;;;;;;;;;;;;;;;22.64;38.96;101226.52;1682415;84;25814;-62
2022/07/21 07:06:51;;;;;;;;;;;;;;;22.76;38.60;101230.88;1695311;83;25643;-60
2022/07/21 07:09:17;;;;;;;;;;;;;;;22.88;39.32;101226.17;1689679;85;27505;-60
2022/07/21 07:11:46;;;;;;;;;;;;;;;22.92;38.66;101227.44;1733926;81;26353;-60
2022/07/21 07:14:14;;;;;;;;;;;;;;;22.93;37.84;101231.88;1725970;82;25736;-61
2022/07/21 07:16:40;;;;;;;;;;;;;;;22.95;36.58;101218.80;1731163;82;25821;-61
2022/07/21 07:19:07;;;;;;;;;;;;;;;23.05;36.29;101229.36;1730405;82;25636;-61
2022/07/21 07:21:33;;;;;;;;;;;;;;;23.16;36.83;101226.55;1689700;84;27482;-60
2022/07/21 07:24:01;;;;;;;;;;;;;;;23.32;36.24;101230.80;1690180;84;26170;-60
2022/07/21 07:26:29;;;;;;;;;;;;;;;23.38;35.31;101229.44;1696170;83;25737;-61
2022/07/21 07:28:55;;;;;;;;;;;;;;;23.43;35.59;101236.53;1692120;84;25837;-61
2022/07/21 07:31:22;;;;;;;;;;;;;;;23.46;35.26;101228.39;1691300;84;25442;-60
2022/07/21 07:33:48;;;;;;;;;;;;;;;23.47;35.26;101237.46;1691684;84;27523;-60
2022/07/21 07:36:14;;;;;;;;;;;;;;;23.54;34.91;101226.81;1681729;83;25799;-61
2022/07/21 07:38:41;;;;;;;;;;;;;;;23.66;34.64;101242.66;1692600;83;25688;-60
2022/07/21 07:41:08;;;;;;;;;;;;;;;23.72;35.05;101240.42;1671355;85;26585;-60
2022/07/21 07:43:35;;;;;;;;;;;;;;;23.78;35.52;101233.23;1671497;85;25656;-60
2022/07/21 07:46:02;;;;;;;;;;;;;;;23.84;35.63;101227.74;1679317;83;27671;-60
2022/07/21 07:48:31;;;;;;;;;;;;;;;23.90;34.71;101238.38;1712386;83;25784;-60
2022/07/21 07:50:57;;;;;;;;;;;;;;;23.96;33.75;101238.95;1699613;84;25763;-61
2022/07/21 07:53:24;;;;;;;;;;;;;;;23.96;33.40;101233.45;1698117;84;26157;-60
2022/07/21 07:55:51;;;;;;;;;;;;;;;24.01;31.81;101236.94;1698076;84;25789;-60
2022/07/21 07:58:18;;;;;;;;;;;;;;;24.05;30.90;101229.42;1697436;84;27492;-60
2022/07/21 08:00:45;;;;;;;;;;;;;;;24.13;30.46;101228.87;1693197;84;25845;-60
2022/07/21 08:03:11;;;;;;;;;;;;;;;24.18;30.32;101234.55;1689846;83;25611;-60
2022/07/21 08:05:38;;;;;;;;;;;;;;;24.22;31.19;101235.28;1714343;83;25746;-61
2022/07/21 08:08:04;;;;;;;;;;;;;;;24.23;31.02;101234.22;1696962;83;25687;-60
2022/07/21 08:10:31;;;;;;;;;;;;;;;24.23;31.01;101228.72;1700646;84;28160;-59
2022/07/21 08:12:58;;;;;;;;;;;;;;;24.27;29.91;101226.92;1700875;84;25814;-60
2022/07/21 08:15:24;;;;;;;;;;;;;;;24.35;30.09;101215.69;1700672;84;25733;-61
2022/07/21 08:17:50;;;;;;;;;;;;;;;24.47;30.30;101219.97;1697008;83;25797;-60
2022/07/21 08:20:17;;;;;;;;;;;;;;;24.61;30.41;101216.08;1691015;84;25812;-60
2022/07/21 08:22:43;;;;;;;;;;;;;;;24.73;30.17;101231.42;1696033;83;27493;-60
2022/07/21 08:25:10;;;;;;;;;;;;;;;24.75;30.44;101228.44;1698628;83;26469;-61
2022/07/21 08:27:39;;;;;;;;;;;;;;;24.74;29.06;101228.98;1693269;84;25485;-60
2022/07/21 08:30:07;;;;;;;;;;;;;;;24.78;29.76;101221.13;1681322;84;25851;-61
2022/07/21 08:32:33;;;;;;;;;;;;;;;24.89;29.94;101214.91;1694812;83;25886;-60
2022/07/21 08:34:59;;;;;;;;;;;;;;;24.88;30.12;101217.34;1697278;84;27514;-60
2022/07/21 08:37:26;;;;;;;;;;;;;;;24.92;30.57;101220.53;1698066;84;25701;-60
2022/07/21 08:39:53;;;;;;;;;;;;;;;24.92;30.23;101206.77;1727857;81;25733;-60
2022/07/21 08:42:20;;;;;;;;;;;;;;;25.01;30.24;101212.31;1733969;82;25803;-60
2022/07/21 08:44:47;;;;;;;;;;;;;;;25.15;30.05;101211.66;1695393;84;25701;-60
2022/07/21 08:47:13;;;;;;;;;;;;;;;25.28;29.31;101206.07;1702699;84;27607;-60
2022/07/21 08:49:40;;;;;;;;;;;;;;;25.46;28.79;101203.92;1694781;84;25813;-61
2022/07/21 08:52:07;;;;;;;;;;;;;;;25.55;28.78;101204.50;1689722;84;25830;-61
2022/07/21 08:54:34;;;;;;;;;;;;;;;25.70;27.61;101204.67;1688228;82;25908;-60
2022/07/21 08:57:00;;;;;;;;;;;;;;;25.80;27.90;101208.30;1681558;85;25872;-60
2022/07/21 08:59:27;;;;;;;;;;;;;;;25.88;27.32;101206.08;1696993;82;27502;-60
2022/07/21 09:01:53;;;;;;;;;;;;;;;25.92;27.92;101198.19;1708541;83;25706;-60
2022/07/21 09:04:34;;;;;;;;;;;;;;;26.02;27.57;101194.38;1693631;84;25797;-61
2022/07/21 09:07:06;;;;;;;;;;;;;;;26.16;27.12;101194.27;1700947;84;26376;-60
2022/07/21 09:09:34;;;;;;;;;;;;;;;26.16;26.78;101186.83;1688586;82;25675;-59
2022/07/21 09:12:02;;;;;;;;;;;;;;;26.24;27.19;101191.20;1708817;82;27573;-58
2022/07/21 09:14:31;;;;;;;;;;;;;;;26.39;27.51;101190.80;1711810;82;25810;-61
2022/07/21 09:16:59;;;;;;;;;;;;;;;26.64;26.54;101185.69;1692686;83;25746;-61
2022/07/21 09:19:44;;;;;;;;;;;;;;;26.92;25.92;101182.87;1693529;84;25955;-61
2022/07/21 09:22:09;;;;;;;;;;;;;;;27.18;23.94;101187.98;1696837;84;25791;-60
2022/07/21 09:24:40;;;;;;;;;;;;;;;27.24;25.27;101188.09;1733763;82;27510;-61
2022/07/21 09:27:16;;;;;;;;;;;;;;;27.44;24.71;101197.45;1715103;82;25810;-60
2022/07/21 09:29:52;;;;;;;;;;;;;;;27.70;23.23;101180.95;1707587;83;25686;-58
2022/07/21 09:32:22;;;;;;;;;;;;;;;27.98;24.48;101175.21;1710186;82;25887;-60
2022/07/21 09:34:55;;;;;;;;;;;;;;;28.33;24.45;101178.45;1717731;82;28646;-60
2022/07/21 09:37:24;;;;;;;;;;;;;;;28.63;23.65;101168.23;1688926;84;27659;-60
2022/07/21 09:39:56;;;;;;;;;;;;;;;28.87;24.00;101176.73;1700826;82;25799;-59
2022/07/21 09:42:32;;;;;;;;;;;;;;;29.13;22.61;101166.13;1702492;82;25814;-61
2022/07/21 09:45:01;;;;;;;;;;;;;;;29.36;21.94;101172.05;1704650;82;26032;-60
2022/07/21 09:47:30;;;;;;;;;;;;;;;29.58;20.87;101169.06;1695441;82;25951;-60
2022/07/21 09:49:57;;;;;;;;;;;;;;;29.76;20.91;101177.09;1703271;83;27443;-59
2022/07/21 09:52:28;;;;;;;;;;;;;;;30.03;20.74;101175.52;1702690;83;25831;-60
2022/07/21 09:54:58;;;;;;;;;;;;;;;30.36;20.73;101165.37;1701724;84;25774;-60
2022/07/21 09:57:26;;;;;;;;;;;;;;;30.53;19.38;101163.94;1701232;84;25754;-63
2022/07/21 09:59:52;;;;;;;;;;;;;;;30.70;20.12;101164.67;1700642;83;25699;-60
2022/07/21 10:02:27;;;;;;;;;;;;;;;30.87;18.88;101160.94;1701701;83;27632;-60
2022/07/21 10:05:07;;;;;;;;;;;;;;;31.00;18.58;101163.83;1696390;84;25853;-61
2022/07/21 10:07:36;;;;;;;;;;;;;;;31.22;18.93;101152.11;1699596;82;25814;-60
2022/07/21 10:10:05;;;;;;;;;;;;;;;31.51;18.63;101155.90;1698869;82;25838;-60
2022/07/21 10:12:32;;;;;;;;;;;;;;;31.72;17.76;101158.02;1702467;84;25946;-60
2022/07/21 10:14:59;;;;;;;;;;;;;;;31.97;17.58;101151.72;1697351;83;27470;-59
2022/07/21 10:17:26;;;;;;;;;;;;;;;32.21;18.22;101145.72;1698579;82;25813;-59
2022/07/21 10:20:25;;;;;;;;;;;;;;;32.44;17.68;101149.99;1703476;83;25764;-59
2022/07/21 10:23:14;;;;;;;;;;;;;;;32.91;16.62;101159.27;1700880;84;25824;-60
2022/07/21 10:25:42;;;;;;;;;;;;;;;33.40;16.45;101149.52;1702358;83;25790;-61
2022/07/21 10:28:20;;;;;;;;;;;;;;;33.93;17.45;101142.15;1680942;84;27563;-61
2022/07/21 10:30:55;;;;;;;;;;;;;;;34.36;16.20;101141.63;1700761;84;26526;-61
2022/07/21 10:33:42;;;;;;;;;;;;;;;34.56;16.50;101137.89;1699629;83;25758;-61
2022/07/21 10:36:10;;;;;;;;;;;;;;;34.83;15.72;101132.39;1702567;84;25815;-60
2022/07/21 10:38:37;;;;;;;;;;;;;;;34.90;15.56;101129.30;1702547;84;25939;-61
2022/07/21 10:41:05;;;;;;;;;;;;;;;34.96;16.12;101132.34;1699736;84;29605;-61
2022/07/21 10:43:38;;;;;;;;;;;;;;;35.43;15.68;101137.49;1693088;83;25891;-61
2022/07/21 10:46:08;;;;;;;;;;;;;;;35.98;15.66;101131.58;1695937;83;25794;-61
2022/07/21 10:48:42;;;;;;;;;;;;;;;35.96;14.46;101133.84;1695617;83;25878;-61
2022/07/21 10:51:11;;;;;;;;;;;;;;;36.07;15.19;101122.77;1693969;83;25796;-61
2022/07/21 10:53:39;;;;;;;;;;;;;;;36.26;14.47;101119.16;1695873;83;27500;-61
2022/07/21 10:56:06;;;;;;;;;;;;;;;36.71;14.07;101125.77;1693117;84;25791;-61
2022/07/21 10:58:36;;;;;;;;;;;;;;;36.95;13.15;101121.48;1692122;84;25821;-61
2022/07/21 11:01:20;;;;;;;;;;;;;;;36.84;13.63;101108.73;1695609;83;25740;-61
2022/07/21 11:03:51;;;;;;;;;;;;;;;37.01;14.65;101115.22;1699437;84;25813;-61
2022/07/21 11:06:25;;;;;;;;;;;;;;;37.24;14.55;101111.98;1673336;84;27591;-61
2022/07/21 11:08:55;;;;;;;;;;;;;;;37.39;13.62;101102.45;1680570;84;25707;-61
2022/07/21 11:11:27;;;;;;;;;;;;;;;37.31;13.67;101111.00;1695546;83;25727;-61
2022/07/21 11:14:09;;;;;;;;;;;;;;;37.33;12.83;101105.92;1671468;85;25898;-61
2022/07/21 11:16:54;;;;;;;;;;;;;;;37.41;13.02;101091.75;1671416;85;43399;-62
2022/07/21 11:19:29;;;;;;;;;;;;;;;37.52;12.86;101098.02;1686843;84;27892;-61
2022/07/21 11:21:59;;;;;;;;;;;;;;;37.54;13.63;101097.11;1701786;83;25842;-62
2022/07/21 11:24:27;;;;;;;;;;;;;;;37.94;13.70;101100.80;1697123;83;25812;-61
2022/07/21 11:27:00;;;;;;;;;;;;;;;38.09;12.83;101090.64;1687245;84;25850;-61
2022/07/21 11:29:28;;;;;;;;;;;;;;;38.44;13.08;101088.16;1706721;83;26176;-62
2022/07/21 11:31:55;;;;;;;;;;;;;;;38.68;13.05;101081.37;1695345;83;27480;-62
2022/07/21 11:34:24;;;;;;;;;;;;;;;38.81;12.84;101084.73;1693202;83;25885;-61
2022/07/21 11:37:01;;;;;;;;;;;;;;;38.66;12.94;101084.52;1696456;83;25773;-62
2022/07/21 11:39:28;;;;;;;;;;;;;;;38.85;12.53;101082.66;1694996;84;25964;-62
2022/07/21 11:41:55;;;;;;;;;;;;;;;38.57;12.35;101089.25;1698996;84;25992;-61
2022/07/21 11:44:25;;;;;;;;;;;;;;;38.54;12.58;101088.47;1710547;83;28568;-61
2022/07/21 11:46:57;;;;;;;;;;;;;;;38.59;13.20;101072.90;1705116;82;25751;-61
2022/07/21 11:49:24;;;;;;;;;;;;;;;39.42;12.78;101069.30;1708441;83;25816;-61
2022/07/21 11:51:57;;;;;;;;;;;;;;;39.82;11.81;101082.52;1701749;83;26736;-61
2022/07/21 11:54:29;;;;;;;;;;;;;;;39.98;11.94;101079.50;1702250;84;25616;-62
2022/07/21 11:56:57;;;;;;;;;;;;;;;40.15;11.82;101077.88;1702226;84;27645;-62
2022/07/21 11:59:24;;;;;;;;;;;;;;;40.29;11.70;101057.40;1702126;84;25757;-62
2022/07/21 12:01:56;;;;;;;;;;;;;;;40.58;11.93;101059.27;1702254;83;25758;-61
2022/07/21 12:04:38;;;;;;;;;;;;;;;40.69;12.06;101054.97;1696768;84;25858;-61
2022/07/21 12:07:18;;;;;;;;;;;;;;;40.70;11.48;101048.17;1693341;84;26375;-60
2022/07/21 12:09:47;;;;;;;;;;;;;;;40.49;12.18;101053.66;1700597;84;27613;-62
2022/07/21 12:12:14;;;;;;;;;;;;;;;40.98;11.59;101049.16;1701537;83;25694;-59
2022/07/21 12:14:49;;;;;;;;;;;;;;;41.30;11.37;101051.96;1702304;84;25868;-63
2022/07/21 12:17:17;;;;;;;;;;;;;;;41.33;11.46;101049.03;1701845;83;26838;-60
2022/07/21 12:19:44;;;;;;;;;;;;;;;41.67;10.78;101039.32;1700557;84;25687;-64
2022/07/21 12:22:13;;;;;;;;;;;;;;;41.39;10.98;101047.66;1699878;83;27601;-60
2022/07/21 12:24:57;;;;;;;;;;;;;;;41.30;11.12;101039.83;1692458;84;25744;-63
2022/07/21 12:27:24;;;;;;;;;;;;;;;41.45;10.70;101040.67;1639835;85;26095;-62
2022/07/21 12:29:51;;;;;;;;;;;;;;;41.81;10.95;101034.82;1653598;85;26738;-62
2022/07/21 12:32:40;;;;;;;;;;;;;;;42.07;10.11;101030.38;1686034;83;25779;-62
2022/07/21 12:35:22;;;;;;;;;;;;;;;42.03;9.84;101025.20;1708539;84;27551;-61
2022/07/21 12:37:56;;;;;;;;;;;;;;;41.59;10.83;101031.14;1674671;84;26133;-61
2022/07/21 12:40:23;;;;;;;;;;;;;;;41.88;10.51;101023.20;1711292;83;25689;-61
2022/07/21 12:42:50;;;;;;;;;;;;;;;41.96;10.30;101017.27;1695952;83;25821;-61
2022/07/21 12:45:20;;;;;;;;;;;;;;;42.11;10.42;101014.41;1713302;83;25759;-62